createdAt,value
2023-02-05T00:00:58.115Z,24.70
2023-02-05T00:03:25.468Z,39.83
2023-02-05T00:05:52.890Z,27.67
2023-02-05T00:08:20.240Z,27.57
2023-02-05T00:10:52.553Z,29.47
2023-02-05T00:13:19.999Z,23.17
2023-02-05T00:15:47.388Z,28.23
2023-02-05T00:18:14.710Z,30.30
2023-02-05T00:20:42.170Z,25.67
2023-02-05T00:23:09.501Z,27.60
2023-02-05T00:25:36.866Z,25.40
2023-02-05T00:28:04.359Z,24.47
2023-02-05T00:30:31.852Z,26.87
2023-02-05T00:32:59.265Z,27.57
2023-02-05T00:35:26.641Z,24.03
2023-02-05T00:37:54.001Z,24.93
2023-02-05T00:40:21.365Z,25.20
2023-02-05T00:42:48.706Z,22.23
2023-02-05T00:45:16.129Z,29.23
2023-02-05T00:47:44.035Z,23.43
2023-02-05T00:50:11.454Z,25.60
2023-02-05T00:52:38.816Z,25.63
2023-02-05T00:55:06.489Z,27.63
2023-02-05T00:57:33.826Z,22.90
2023-02-05T01:00:01.200Z,24.73
2023-02-05T01:02:28.728Z,20.37
2023-02-05T01:04:56.224Z,19.20
2023-02-05T01:07:23.625Z,22.13
2023-02-05T01:09:51.032Z,23.10
2023-02-05T01:12:18.507Z,31.63
2023-02-05T01:14:45.857Z,31.80
2023-02-05T01:17:13.209Z,25.90
2023-02-05T01:19:40.655Z,27.93
2023-02-05T01:22:08.056Z,24.33
2023-02-05T01:24:35.506Z,22.70
2023-02-05T01:27:02.996Z,22.90
2023-02-05T01:29:30.751Z,20.93
2023-02-05T01:31:58.137Z,22.83
2023-02-05T01:34:25.452Z,29.57
2023-02-05T01:36:52.726Z,23.17
2023-02-05T01:39:20.003Z,24.27
2023-02-05T01:41:47.392Z,31.73
2023-02-05T01:44:18.851Z,30.67
2023-02-05T01:46:47.240Z,18.80
2023-02-05T01:49:18.635Z,27.87
2023-02-05T01:51:48.474Z,27.10
2023-02-05T01:54:17.057Z,18.93
2023-02-05T01:56:46.346Z,27.57
2023-02-05T01:59:19.646Z,17.97
2023-02-05T02:01:47.311Z,20.63
2023-02-05T02:04:18.072Z,19.27
2023-02-05T02:06:45.697Z,23.80
2023-02-05T02:09:13.383Z,23.57
2023-02-05T02:11:42.928Z,23.03
2023-02-05T02:14:10.838Z,17.90
2023-02-05T02:16:39.699Z,21.47
2023-02-05T02:19:10.605Z,21.30
2023-02-05T02:21:56.752Z,23.07
2023-02-05T02:24:36.070Z,18.33
2023-02-05T02:27:03.831Z,18.27
2023-02-05T02:29:31.075Z,23.73
2023-02-05T02:32:01.079Z,25.57
2023-02-05T02:34:34.032Z,21.77
2023-02-05T02:37:14.183Z,25.07
2023-02-05T02:39:49.119Z,19.50
2023-02-05T02:42:19.126Z,22.90
2023-02-05T02:44:53.729Z,26.93
2023-02-05T02:47:23.115Z,23.53
2023-02-05T02:49:52.767Z,25.20
2023-02-05T02:52:22.001Z,25.17
2023-02-05T02:54:51.564Z,32.23
2023-02-05T02:57:22.220Z,29.57
2023-02-05T02:59:52.480Z,24.80
2023-02-05T03:02:20.534Z,32.83
2023-02-05T03:04:49.762Z,30.63
2023-02-05T03:07:48.464Z,28.73
2023-02-05T03:10:48.402Z,34.70
2023-02-05T03:13:16.095Z,29.13
2023-02-05T03:15:49.475Z,27.03
2023-02-05T03:18:17.954Z,25.57
2023-02-05T03:20:53.300Z,19.77
2023-02-05T03:23:20.659Z,21.30
2023-02-05T03:25:47.970Z,26.30
2023-02-05T03:28:18.649Z,26.97
2023-02-05T03:31:05.675Z,23.07
2023-02-05T03:33:56.444Z,25.07
2023-02-05T03:36:30.861Z,21.23
2023-02-05T03:39:17.197Z,22.20
2023-02-05T03:41:56.860Z,19.93
2023-02-05T03:44:48.267Z,19.87
2023-02-05T03:47:27.415Z,17.73
2023-02-05T03:50:18.081Z,19.80
2023-02-05T03:52:50.835Z,17.07
2023-02-05T03:55:20.005Z,19.10
2023-02-05T03:57:52.967Z,22.50
2023-02-05T04:00:21.116Z,18.37
2023-02-05T04:02:52.962Z,23.13
2023-02-05T04:05:24.378Z,18.57
2023-02-05T04:07:54.333Z,16.00
2023-02-05T04:10:25.558Z,17.03
2023-02-05T04:12:53.065Z,21.10
2023-02-05T04:15:20.783Z,15.37
2023-02-05T04:17:52.864Z,20.30
2023-02-05T04:20:20.314Z,17.57
2023-02-05T04:22:47.655Z,12.57
2023-02-05T04:25:15.561Z,13.60
2023-02-05T04:27:43.947Z,17.53
2023-02-05T04:30:11.988Z,17.40
2023-02-05T04:32:43.369Z,15.33
2023-02-05T04:35:11.179Z,19.87
2023-02-05T04:37:38.562Z,14.57
2023-02-05T04:40:06.684Z,20.27
2023-02-05T04:42:33.997Z,14.03
2023-02-05T04:45:01.394Z,13.23
2023-02-05T04:47:30.464Z,18.07
2023-02-05T04:49:57.724Z,17.60
2023-02-05T04:52:25.105Z,14.90
2023-02-05T04:54:52.454Z,14.33
2023-02-05T04:57:19.719Z,13.93
2023-02-05T04:59:47.027Z,16.40
2023-02-05T05:02:14.753Z,20.43
2023-02-05T05:04:43.290Z,19.87
2023-02-05T05:07:10.796Z,11.23
2023-02-05T05:09:38.106Z,14.87
2023-02-05T05:12:05.707Z,14.47
2023-02-05T05:14:33.126Z,16.13
2023-02-05T05:17:00.428Z,15.27
2023-02-05T05:19:27.821Z,19.97
2023-02-05T05:21:55.215Z,17.90
2023-02-05T05:24:22.632Z,15.23
2023-02-05T05:26:49.910Z,14.20
2023-02-05T05:29:17.222Z,12.87
2023-02-05T05:31:44.565Z,13.63
2023-02-05T05:34:11.848Z,14.03
2023-02-05T05:36:43.370Z,14.67
2023-02-05T05:39:34.202Z,13.23
2023-02-05T05:42:20.323Z,14.87
2023-02-05T05:44:52.874Z,15.40
2023-02-05T05:47:20.728Z,21.50
2023-02-05T05:49:48.033Z,11.37
2023-02-05T05:52:15.650Z,13.17
2023-02-05T05:54:42.987Z,14.93
2023-02-05T06:05:21.058Z,14.53
2023-02-05T06:07:48.378Z,15.23
2023-02-05T06:10:15.691Z,16.10
2023-02-05T06:12:42.925Z,18.63
2023-02-05T06:15:10.343Z,11.83
2023-02-05T06:17:37.940Z,16.57
2023-02-05T06:20:06.256Z,12.10
2023-02-05T06:22:33.568Z,11.87
2023-02-05T06:25:02.208Z,21.77
2023-02-05T06:27:29.518Z,14.40
2023-02-05T06:29:56.777Z,12.83
2023-02-05T06:32:26.672Z,12.73
2023-02-05T06:34:54.202Z,10.97
2023-02-05T06:37:24.940Z,14.07
2023-02-05T06:39:52.667Z,17.37
2023-02-05T06:42:20.080Z,15.47
2023-02-05T06:44:47.529Z,16.40
2023-02-05T06:47:14.816Z,17.33
2023-02-05T06:49:42.054Z,18.50
2023-02-05T06:52:09.348Z,33.17
2023-02-05T06:54:38.539Z,41.87
2023-02-05T06:57:07.070Z,32.20
2023-02-05T06:59:34.364Z,40.63
2023-02-05T07:02:01.724Z,31.60
2023-02-05T07:04:30.962Z,21.13
2023-02-05T07:06:58.541Z,19.00
2023-02-05T07:09:26.024Z,19.47
2023-02-05T07:11:53.934Z,20.67
2023-02-05T07:14:21.193Z,18.43
2023-02-05T07:16:49.208Z,20.20
2023-02-05T07:19:16.731Z,14.57
2023-02-05T07:21:44.185Z,16.60
2023-02-05T07:24:11.521Z,25.40
2023-02-05T07:26:38.979Z,19.17
2023-02-05T07:29:06.323Z,18.70
2023-02-05T07:31:34.066Z,18.87
2023-02-05T07:34:01.412Z,18.00
2023-02-05T07:36:28.712Z,17.67
2023-02-05T07:38:56.091Z,17.93
2023-02-05T07:41:23.787Z,22.63
2023-02-05T07:43:52.991Z,19.37
2023-02-05T07:46:20.884Z,23.63
2023-02-05T07:48:48.296Z,20.33
2023-02-05T07:51:17.183Z,34.97
2023-02-05T07:53:44.861Z,19.27
2023-02-05T07:56:12.245Z,21.93
2023-02-05T07:58:40.179Z,19.37
2023-02-05T08:01:07.579Z,18.03
2023-02-05T08:03:35.330Z,16.90
2023-02-05T08:06:06.457Z,19.97
2023-02-05T08:08:33.870Z,18.07
2023-02-05T08:11:03.581Z,15.33
2023-02-05T08:13:31.029Z,18.30
2023-02-05T08:15:58.716Z,25.53
2023-02-05T08:18:26.251Z,20.17
2023-02-05T08:20:54.450Z,20.10
2023-02-05T08:23:22.450Z,27.63
2023-02-05T08:25:53.563Z,79.97
2023-02-05T08:28:21.318Z,20.60
2023-02-05T08:30:48.650Z,19.80
2023-02-05T08:33:16.133Z,24.87
2023-02-05T08:35:43.435Z,18.60
2023-02-05T08:38:10.741Z,31.93
2023-02-05T08:40:38.026Z,32.00
2023-02-05T08:43:05.423Z,30.97
2023-02-05T08:45:33.246Z,24.40
2023-02-05T08:48:00.992Z,23.27
2023-02-05T08:50:28.247Z,20.20
2023-02-05T08:52:58.046Z,79.70
2023-02-05T08:55:25.356Z,25.27
2023-02-05T08:57:52.942Z,25.97
2023-02-05T09:00:21.215Z,86.30
2023-02-05T09:02:48.556Z,91.10
2023-02-05T09:05:15.893Z,23.43
2023-02-05T09:07:43.306Z,22.13
2023-02-05T09:10:12.887Z,96.93
2023-02-05T09:12:40.772Z,22.47
2023-02-05T09:15:09.072Z,17.17
2023-02-05T09:17:36.522Z,19.00
2023-02-05T09:20:04.311Z,72.53
2023-02-05T09:26:45.237Z,18.00
2023-02-05T09:29:12.520Z,21.45
2023-02-05T09:31:41.777Z,22.00
2023-02-05T09:34:09.167Z,24.27
2023-02-05T09:36:36.490Z,21.20
2023-02-05T09:39:15.831Z,21.47
2023-02-05T09:42:08.158Z,18.73
2023-02-05T09:44:41.789Z,21.47
2023-02-05T09:47:16.868Z,19.77
2023-02-05T09:50:03.212Z,17.07
2023-02-05T09:52:33.919Z,30.73
2023-02-05T09:55:04.027Z,36.37
2023-02-05T09:57:39.623Z,45.07
2023-02-05T10:00:21.421Z,31.77
2023-02-05T10:02:51.726Z,21.70
2023-02-05T10:05:20.232Z,49.60
2023-02-05T10:07:47.476Z,14.30
2023-02-05T10:10:24.677Z,24.97
2023-02-05T10:12:57.749Z,18.50
2023-02-05T10:15:34.055Z,15.67
2023-02-05T10:18:19.512Z,24.47
2023-02-05T10:20:55.676Z,17.07
2023-02-05T10:23:36.548Z,53.83
2023-02-05T10:26:10.384Z,25.20
2023-02-05T10:29:06.272Z,19.43
2023-02-05T10:31:42.691Z,22.13
2023-02-05T10:34:35.704Z,17.13
2023-02-05T10:37:04.437Z,17.33
2023-02-05T10:39:32.225Z,25.87
2023-02-05T10:42:06.078Z,102.67
2023-02-05T10:44:35.285Z,24.10
2023-02-05T10:47:17.577Z,23.43
2023-02-05T10:49:48.751Z,13.10
2023-02-05T10:52:16.862Z,22.37
2023-02-05T10:54:44.919Z,23.33
2023-02-05T10:57:16.985Z,18.03
2023-02-05T10:59:54.442Z,32.00
2023-02-05T11:02:22.845Z,27.40
2023-02-05T11:04:55.453Z,17.40
2023-02-05T11:07:26.441Z,18.63
2023-02-05T11:09:54.134Z,19.67
2023-02-05T11:12:31.470Z,18.83
2023-02-05T11:15:03.376Z,13.53
2023-02-05T11:17:34.123Z,17.30
2023-02-05T11:20:03.990Z,22.93
2023-02-05T11:22:34.458Z,15.27
2023-02-05T11:25:22.646Z,17.50
2023-02-05T11:27:53.039Z,17.07
2023-02-05T11:30:49.730Z,12.37
2023-02-05T11:33:31.316Z,18.23
2023-02-05T11:36:03.522Z,16.67
2023-02-05T11:38:30.842Z,19.83
2023-02-05T11:40:59.660Z,17.07
2023-02-05T11:43:28.807Z,19.23
2023-02-05T11:45:57.892Z,17.90
2023-02-05T11:48:29.440Z,21.53
2023-02-05T11:50:56.783Z,22.10
2023-02-05T11:53:24.618Z,21.47
2023-02-05T11:55:53.576Z,21.27
2023-02-05T11:58:36.094Z,24.13
2023-02-05T12:01:07.062Z,22.87
2023-02-05T12:03:35.843Z,22.80
2023-02-05T12:06:08.148Z,23.57
2023-02-05T12:08:39.134Z,16.50
2023-02-05T12:11:13.042Z,16.80
2023-02-05T12:13:59.454Z,26.03
2023-02-05T12:16:46.759Z,20.60
2023-02-05T12:19:22.051Z,20.50
2023-02-05T12:21:49.340Z,32.80
2023-02-05T12:24:19.512Z,24.27
2023-02-05T12:26:49.457Z,15.87
2023-02-05T12:29:43.578Z,19.90
2023-02-05T12:32:14.168Z,21.53
2023-02-05T12:35:01.404Z,20.23
2023-02-05T12:37:36.842Z,24.70
2023-02-05T12:40:08.383Z,30.70
2023-02-05T12:42:56.812Z,23.77
2023-02-05T12:45:34.287Z,27.67
2023-02-05T12:48:22.765Z,24.90
2023-02-05T12:50:54.601Z,27.10
2023-02-05T12:53:27.831Z,34.83
2023-02-05T12:56:14.952Z,47.47
2023-02-05T12:58:45.727Z,32.87
2023-02-05T13:01:20.306Z,37.90
2023-02-05T13:03:56.281Z,44.83
2023-02-05T13:06:43.793Z,41.17
2023-02-05T13:09:17.066Z,40.77
2023-02-05T13:11:49.658Z,39.03
2023-02-05T13:14:20.379Z,42.53
2023-02-05T13:16:50.512Z,49.47
2023-02-05T13:19:17.897Z,46.00
2023-02-05T13:22:05.136Z,48.60
2023-02-05T13:24:54.259Z,45.23
2023-02-05T13:27:39.961Z,45.47
2023-02-05T13:30:10.255Z,45.03
2023-02-05T13:32:38.709Z,42.83
2023-02-05T13:35:07.468Z,45.07
2023-02-05T13:37:42.722Z,43.00
2023-02-05T13:40:29.019Z,51.50
2023-02-05T13:43:15.468Z,47.90
2023-02-05T13:45:42.895Z,49.90
2023-02-05T13:48:16.086Z,43.60
2023-02-05T13:51:01.268Z,37.93
2023-02-05T13:53:38.439Z,38.53
2023-02-05T13:56:12.086Z,41.92
2023-02-05T13:59:06.013Z,41.13
2023-02-05T14:01:38.302Z,40.63
2023-02-05T14:04:07.701Z,47.20
2023-02-05T14:06:39.846Z,43.83
2023-02-05T14:09:08.525Z,34.30
2023-02-05T14:11:48.042Z,45.67
2023-02-05T14:14:15.534Z,41.77
2023-02-05T14:16:43.059Z,49.73
2023-02-05T14:19:13.353Z,43.43
2023-02-05T14:21:46.915Z,47.93
2023-02-05T14:24:28.452Z,42.13
2023-02-05T14:26:57.478Z,49.10
2023-02-05T14:29:43.825Z,44.00
2023-02-05T14:36:19.842Z,54.87
2023-02-05T14:38:53.362Z,51.03
2023-02-05T14:41:28.563Z,50.07
2023-02-05T14:44:03.470Z,45.47
2023-02-05T14:46:37.472Z,43.80
2023-02-05T14:49:07.468Z,47.77
2023-02-05T14:51:39.925Z,52.50
2023-02-05T14:54:07.136Z,50.13
2023-02-05T14:56:46.743Z,53.60
2023-02-05T14:59:17.685Z,56.37
2023-02-05T15:01:46.393Z,55.77
2023-02-05T15:04:19.943Z,54.70
2023-02-05T15:06:47.571Z,55.70
2023-02-05T15:09:14.898Z,63.97
2023-02-05T15:11:55.533Z,58.63
2023-02-05T15:14:24.308Z,58.37
2023-02-05T15:17:06.937Z,56.57
2023-02-05T15:19:34.989Z,51.00
2023-02-05T15:22:03.173Z,59.87
2023-02-05T15:24:30.982Z,52.77
2023-02-05T15:27:03.428Z,56.73
2023-02-05T15:29:36.951Z,58.43
2023-02-05T15:32:06.508Z,63.30
2023-02-05T15:34:39.325Z,63.10
2023-02-05T15:37:09.758Z,56.83
2023-02-05T15:39:55.867Z,61.77
2023-02-05T15:42:31.096Z,68.90
2023-02-05T15:44:58.504Z,61.57
2023-02-05T15:47:28.103Z,59.00
2023-02-05T15:49:57.849Z,73.60
2023-02-05T15:52:27.107Z,65.53
2023-02-05T15:54:56.640Z,70.20
2023-02-05T15:57:26.753Z,64.17
2023-02-05T15:59:55.317Z,57.70
2023-02-05T16:02:24.098Z,60.90
2023-02-05T16:04:54.589Z,57.23
2023-02-05T16:07:23.419Z,67.90
2023-02-05T16:09:53.978Z,61.83
2023-02-05T16:12:21.642Z,54.17
2023-02-05T16:15:02.613Z,55.90
2023-02-05T16:17:37.088Z,53.83
2023-02-05T16:20:23.298Z,58.77
2023-02-05T16:22:56.935Z,64.73
2023-02-05T16:25:30.452Z,58.33
2023-02-05T16:27:58.631Z,53.77
2023-02-05T16:30:33.000Z,61.37
2023-02-05T16:33:01.687Z,63.30
2023-02-05T16:35:48.510Z,53.30
2023-02-05T16:38:16.733Z,60.70
2023-02-05T16:40:51.408Z,56.73
2023-02-05T16:43:18.983Z,59.20
2023-02-05T16:46:17.269Z,64.40
2023-02-05T16:48:48.105Z,71.13
2023-02-05T16:51:33.578Z,60.80
2023-02-05T16:54:01.992Z,73.83
2023-02-05T16:56:31.177Z,75.83
2023-02-05T16:59:00.355Z,74.93
2023-02-05T17:01:29.792Z,87.27
2023-02-05T17:03:57.561Z,70.20
2023-02-05T17:06:25.037Z,79.30
2023-02-05T17:08:55.102Z,80.47
2023-02-05T17:11:33.585Z,84.27
2023-02-05T17:14:12.606Z,84.17
2023-02-05T17:16:41.246Z,80.13
2023-02-05T17:19:41.233Z,77.33
2023-02-05T17:22:14.681Z,77.90
2023-02-05T17:24:42.024Z,88.70
2023-02-05T17:27:21.920Z,80.97
2023-02-05T17:29:49.639Z,77.83
2023-02-05T17:32:17.960Z,77.53
2023-02-05T17:34:45.992Z,75.27
2023-02-05T17:37:13.662Z,77.00
2023-02-05T17:39:41.265Z,84.30
2023-02-05T17:42:19.120Z,81.53
2023-02-05T17:44:46.483Z,80.57
2023-02-05T17:47:13.866Z,72.53
2023-02-05T17:49:41.960Z,79.90
2023-02-05T17:52:10.277Z,66.70
2023-02-05T17:54:37.677Z,74.87
2023-02-05T17:57:35.039Z,76.20
2023-02-05T18:00:02.789Z,75.23
2023-02-05T18:02:39.405Z,79.37
2023-02-05T18:05:07.049Z,77.63
2023-02-05T18:07:36.560Z,78.87
2023-02-05T18:10:04.962Z,69.43
2023-02-05T18:12:32.638Z,80.83
2023-02-05T18:15:00.124Z,74.57
2023-02-05T18:17:27.529Z,74.13
2023-02-05T18:19:54.963Z,67.27
2023-02-05T18:22:22.501Z,65.73
2023-02-05T18:24:49.899Z,77.00
2023-02-05T18:27:17.357Z,77.70
2023-02-05T18:29:44.762Z,75.03
2023-02-05T18:32:12.402Z,67.07
2023-02-05T18:34:40.099Z,71.90
2023-02-05T18:37:07.587Z,76.83
2023-02-05T18:39:34.925Z,79.17
2023-02-05T18:42:02.309Z,76.73
2023-02-05T18:44:29.708Z,80.93
2023-02-05T18:46:57.095Z,82.70
2023-02-05T18:49:24.533Z,94.07
2023-02-05T18:51:52.213Z,89.03
2023-02-05T18:54:19.574Z,82.00
2023-02-05T18:56:48.026Z,99.17
2023-02-05T18:59:18.031Z,95.17
2023-02-05T19:01:45.401Z,92.87
2023-02-05T19:04:13.836Z,93.13
2023-02-05T19:06:45.554Z,86.00
2023-02-05T19:09:12.971Z,82.43
2023-02-05T19:11:41.476Z,92.07
2023-02-05T19:14:11.144Z,90.97
2023-02-05T19:16:38.985Z,90.40
2023-02-05T19:19:06.379Z,77.63
2023-02-05T19:21:34.121Z,80.47
2023-02-05T19:24:07.204Z,86.17
2023-02-05T19:26:35.890Z,83.00
2023-02-05T19:29:05.904Z,83.00
2023-02-05T19:31:34.519Z,81.87
2023-02-05T19:34:02.220Z,87.47
2023-02-05T19:36:30.313Z,90.17
2023-02-05T19:38:58.249Z,85.03
2023-02-05T19:41:26.611Z,88.50
2023-02-05T19:43:58.146Z,85.73
2023-02-05T19:46:36.777Z,81.30
2023-02-05T19:49:11.491Z,81.77
2023-02-05T19:51:39.012Z,82.53
2023-02-05T19:54:06.928Z,170.17
2023-02-05T19:56:37.748Z,161.47
2023-02-05T19:59:06.282Z,74.37
2023-02-05T20:01:35.035Z,78.27
2023-02-05T20:04:08.760Z,74.67
2023-02-05T20:06:36.899Z,76.30
2023-02-05T20:09:10.269Z,73.47
2023-02-05T20:11:38.514Z,69.00
2023-02-05T20:14:06.365Z,58.50
2023-02-05T20:16:34.165Z,65.20
2023-02-05T20:19:01.931Z,53.40
2023-02-05T20:21:30.151Z,60.47
2023-02-05T20:23:57.784Z,62.97
2023-02-05T20:26:25.676Z,66.23
2023-02-05T20:29:20.426Z,67.10
2023-02-05T20:31:49.664Z,57.70
2023-02-05T20:34:21.870Z,70.87
2023-02-05T20:36:53.730Z,50.67
2023-02-05T20:39:21.980Z,70.60
2023-02-05T20:41:50.750Z,74.13
2023-02-05T20:44:18.602Z,68.80
2023-02-05T20:46:46.058Z,68.70
2023-02-05T20:49:13.651Z,64.37
2023-02-05T20:51:44.844Z,59.53
2023-02-05T20:54:12.943Z,57.10
2023-02-05T20:56:40.681Z,56.47
2023-02-05T20:59:09.633Z,64.43
2023-02-05T21:01:37.658Z,56.53
2023-02-05T21:04:05.782Z,62.83
2023-02-05T21:06:35.052Z,75.43
2023-02-05T21:09:02.753Z,60.87
2023-02-05T21:11:30.572Z,64.07
2023-02-05T21:13:58.863Z,60.87
2023-02-05T21:16:27.134Z,57.40
2023-02-05T21:18:54.916Z,61.27
2023-02-05T21:21:24.399Z,64.93
2023-02-05T21:23:54.301Z,70.57
2023-02-05T21:26:23.418Z,61.83
2023-02-05T21:28:54.847Z,68.00
2023-02-05T21:31:22.574Z,63.00
2023-02-05T21:33:50.111Z,60.97
2023-02-05T21:36:20.860Z,62.03
2023-02-05T21:38:48.320Z,60.80
2023-02-05T21:41:16.981Z,54.10
2023-02-05T21:43:48.188Z,48.77
2023-02-05T21:46:15.786Z,60.80
2023-02-05T21:48:43.223Z,61.83
2023-02-05T21:51:11.924Z,56.03
2023-02-05T21:53:39.748Z,58.87
2023-02-05T21:56:08.110Z,55.13
2023-02-05T21:58:36.602Z,53.37
2023-02-05T22:01:14.503Z,55.97
2023-02-05T22:03:42.330Z,60.57
2023-02-05T22:06:10.197Z,62.50
2023-02-05T22:08:38.575Z,59.33
2023-02-05T22:11:07.218Z,58.67
2023-02-05T22:13:41.601Z,57.93
2023-02-05T22:16:10.491Z,61.93
2023-02-05T22:18:38.521Z,58.70
2023-02-05T22:21:26.767Z,61.43
2023-02-05T22:23:54.904Z,62.80
2023-02-05T22:26:23.476Z,57.57
2023-02-05T22:28:51.198Z,65.30
2023-02-05T22:31:19.465Z,61.63
2023-02-05T22:33:47.719Z,59.70
2023-02-05T22:36:18.784Z,65.47
2023-02-05T22:38:46.664Z,72.50
2023-02-05T22:41:18.318Z,61.03
2023-02-05T22:43:45.694Z,61.53
2023-02-05T22:46:14.888Z,55.60
2023-02-05T22:48:43.532Z,66.03
2023-02-05T22:51:12.253Z,74.30
2023-02-05T22:53:39.642Z,57.63
2023-02-05T22:56:08.437Z,70.83
2023-02-05T22:58:36.152Z,67.93
2023-02-05T23:01:10.581Z,71.10
2023-02-05T23:03:38.750Z,60.53
2023-02-05T23:06:10.400Z,76.70
2023-02-05T23:08:38.124Z,68.43
2023-02-05T23:11:07.091Z,63.20
2023-02-05T23:13:34.562Z,61.23
2023-02-05T23:16:09.499Z,56.67
2023-02-05T23:18:37.255Z,78.37
2023-02-05T23:21:15.408Z,62.63
2023-02-05T23:23:43.212Z,56.10
2023-02-05T23:26:12.103Z,55.30
2023-02-05T23:28:39.766Z,78.00
2023-02-05T23:31:07.238Z,66.87
2023-02-05T23:33:35.212Z,63.83
2023-02-05T23:36:03.210Z,66.10
2023-02-05T23:38:30.681Z,60.20
2023-02-05T23:40:58.044Z,62.80
2023-02-05T23:43:25.780Z,65.93
2023-02-05T23:45:53.608Z,59.30
2023-02-05T23:48:21.104Z,63.17
2023-02-05T23:50:56.928Z,46.80
2023-02-05T23:53:24.314Z,51.60
2023-02-05T23:55:52.277Z,57.63
2023-02-05T23:58:20.313Z,66.63
